Time;durP1;ratioP1;P1;durP2;ratioP2;P2;SDS_P1;SDS_P2;PMS_P1;PMS_P2;Temp;Humidity;BMP_temperature;BMP_pressure;BME280_temperature;BME280_humidity;BME280_pressure;Samples;Min_cycle;Max_cycle;Signal;HPM_P1;HPM_P2
2022/01/14 00:00:44;;;;;;;258.10;42.40;;;5.50;99.90;;;;;;5045639;28;20047;-74
2022/01/14 00:03:11;;;;;;;274.83;45.55;;;5.50;99.90;;;;;;5024774;28;20061;-75
2022/01/14 00:05:36;;;;;;;253.50;43.53;;;5.50;99.90;;;;;;5034514;28;20037;-74
2022/01/14 00:08:02;;;;;;;254.68;42.42;;;5.50;99.90;;;;;;5010053;28;20044;-74
2022/01/14 00:10:30;;;;;;;227.73;40.83;;;5.50;99.90;;;;;;5037352;28;20041;-74
2022/01/14 00:13:05;;;;;;;221.75;40.42;;;5.60;99.90;;;;;;5037940;28;20044;-74
2022/01/14 00:15:34;;;;;;;233.00;42.70;;;5.60;99.90;;;;;;5037913;28;20384;-74
2022/01/14 00:18:01;;;;;;;226.68;40.60;;;5.60;99.90;;;;;;5037788;28;20055;-74
2022/01/14 00:20:27;;;;;;;200.38;38.80;;;5.60;99.90;;;;;;5037008;28;20048;-75
2022/01/14 00:22:52;;;;;;;202.40;38.95;;;5.60;99.90;;;;;;5033356;28;20033;-74
2022/01/14 00:33:32;;;;;;;170.25;37.92;;;5.70;99.90;;;;;;5037591;28;20041;-74
2022/01/14 00:35:58;;;;;;;161.85;37.70;;;5.70;99.90;;;;;;5037276;28;20383;-74
2022/01/14 00:38:24;;;;;;;159.90;36.53;;;5.70;99.90;;;;;;5020997;28;20041;-73
2022/01/14 00:40:49;;;;;;;173.35;37.17;;;5.80;99.90;;;;;;5021061;28;20043;-74
2022/01/14 00:43:15;;;;;;;136.55;33.60;;;5.70;99.90;;;;;;5037305;28;20072;-74
2022/01/14 00:45:41;;;;;;;118.75;32.15;;;5.80;99.90;;;;;;5020116;28;20032;-74
2022/01/14 00:48:07;;;;;;;106.03;31.77;;;5.80;99.90;;;;;;5036796;28;20037;-74
2022/01/14 00:50:34;;;;;;;116.85;32.80;;;5.80;99.90;;;;;;5036541;28;20059;-75
2022/01/14 00:53:00;;;;;;;112.70;31.58;;;5.80;99.90;;;;;;5033901;28;20052;-75
2022/01/14 00:55:29;;;;;;;107.03;30.52;;;5.80;99.90;;;;;;5004963;28;20119;-74
2022/01/14 01:00:29;;;;;;;100.67;29.57;;;5.90;99.90;;;;;;5036464;28;20048;-74
2022/01/14 01:02:55;;;;;;;91.63;29.98;;;5.90;99.90;;;;;;5050218;28;20283;-74
2022/01/14 01:05:21;;;;;;;88.65;29.88;;;6.00;99.90;;;;;;5056851;28;20051;-74
2022/01/14 01:07:57;;;;;;;90.20;28.60;;;6.00;99.90;;;;;;5040057;28;20055;-73
2022/01/14 01:10:24;;;;;;;92.40;28.75;;;6.00;99.90;;;;;;5056415;28;20106;-74
2022/01/14 01:12:54;;;;;;;86.65;29.83;;;6.00;99.90;;;;;;5056428;28;20044;-74
2022/01/14 01:15:20;;;;;;;87.63;29.33;;;6.00;99.90;;;;;;5056026;28;20402;-73
2022/01/14 01:17:48;;;;;;;82.97;29.15;;;6.00;99.90;;;;;;5056113;28;20386;-74
2022/01/14 01:20:21;;;;;;;86.55;29.42;;;6.00;99.90;;;;;;5039622;28;20094;-74
2022/01/14 01:22:50;;;;;;;80.97;28.77;;;6.00;99.90;;;;;;5056360;28;20040;-74
2022/01/14 01:25:19;;;;;;;87.18;29.48;;;6.10;99.90;;;;;;5055813;28;20045;-73
2022/01/14 01:27:47;;;;;;;73.03;27.20;;;6.10;99.90;;;;;;5053053;28;20084;-73
2022/01/14 01:32:41;;;;;;;82.28;30.63;;;6.10;99.90;;;;;;5040447;28;20040;-74
2022/01/14 01:35:07;;;;;;;78.15;29.33;;;6.10;99.90;;;;;;5039674;28;20086;-74
2022/01/14 01:37:32;;;;;;;94.20;30.38;;;6.10;99.90;;;;;;5038596;28;20123;-74
2022/01/14 01:39:58;;;;;;;87.10;30.42;;;6.10;99.90;;;;;;5052300;28;20037;-74
2022/01/14 01:42:28;;;;;;;70.57;30.58;;;6.10;99.90;;;;;;5052803;28;20037;-74
2022/01/14 01:44:54;;;;;;;81.95;31.23;;;6.10;99.90;;;;;;5039092;28;20040;-73
2022/01/14 01:47:22;;;;;;;76.13;29.90;;;6.10;99.90;;;;;;5055316;28;20051;-74
2022/01/14 01:49:48;;;;;;;82.80;30.17;;;6.10;99.90;;;;;;5056045;28;20066;-74
2022/01/14 01:52:14;;;;;;;80.03;31.40;;;6.10;99.90;;;;;;5038864;28;20437;-73
2022/01/14 01:54:39;;;;;;;75.32;29.65;;;6.10;99.90;;;;;;5038647;28;20040;-74
2022/01/14 01:57:06;;;;;;;86.35;32.60;;;6.10;99.90;;;;;;5055921;28;20072;-74
2022/01/14 01:59:31;;;;;;;85.15;32.42;;;6.20;99.90;;;;;;5056153;28;20090;-74
2022/01/14 02:02:00;;;;;;;89.97;32.80;;;6.10;99.90;;;;;;5033170;28;20052;-75
2022/01/14 02:04:27;;;;;;;103.05;34.92;;;6.10;99.90;;;;;;5035247;28;20040;-73
2022/01/14 02:06:55;;;;;;;97.53;35.58;;;6.20;99.90;;;;;;5032183;28;20103;-74
2022/01/14 02:09:21;;;;;;;107.75;33.20;;;6.10;99.90;;;;;;5016116;28;20111;-75
2022/01/14 02:11:48;;;;;;;103.25;34.92;;;6.10;99.90;;;;;;5019249;28;20040;-74
2022/01/14 02:14:28;;;;;;;104.63;35.58;;;6.10;99.90;;;;;;5035597;28;20127;-74
2022/01/14 02:17:15;;;;;;;114.43;37.17;;;6.10;99.90;;;;;;5032176;28;20403;-73
2022/01/14 02:22:57;;;;;;;118.13;37.42;;;6.00;99.90;;;;;;5029043;28;20166;-74
2022/01/14 02:25:30;;;;;;;118.93;35.30;;;6.00;99.90;;;;;;5035079;28;20530;-74
2022/01/14 02:28:02;;;;;;;117.05;36.83;;;6.00;99.90;;;;;;5033096;28;20492;-74
2022/01/14 02:30:29;;;;;;;125.22;36.83;;;6.00;99.90;;;;;;5025912;28;20102;-74
2022/01/14 02:32:55;;;;;;;115.72;35.85;;;6.00;99.90;;;;;;5035425;28;20040;-75
2022/01/14 02:35:21;;;;;;;120.82;37.45;;;6.00;99.90;;;;;;5018689;28;20041;-75
2022/01/14 02:37:47;;;;;;;116.82;36.40;;;6.00;99.90;;;;;;5035420;28;20422;-75
2022/01/14 02:40:13;;;;;;;118.78;34.78;;;5.90;99.90;;;;;;5035120;28;20124;-74
2022/01/14 02:42:39;;;;;;;116.43;35.30;;;5.90;99.90;;;;;;5034948;28;20040;-73
2022/01/14 02:45:07;;;;;;;117.18;36.92;;;5.90;99.90;;;;;;5035881;28;20356;-74
2022/01/14 02:47:33;;;;;;;108.82;35.08;;;5.90;99.90;;;;;;5035559;28;20485;-73
2022/01/14 02:50:00;;;;;;;103.43;34.88;;;5.90;99.90;;;;;;5035218;28;20368;-73
2022/01/14 02:53:23;;;;;;;109.32;35.13;;;5.90;99.90;;;;;;5018442;28;20080;-73
2022/01/14 02:55:18;;;;;;;103.25;34.75;;;5.90;99.90;;;;;;5024147;28;20060;-74
2022/01/14 02:57:46;;;;;;;112.78;36.92;;;5.90;99.90;;;;;;5035502;28;20513;-75
2022/01/14 03:00:13;;;;;;;114.70;35.38;;;5.90;99.90;;;;;;5035102;28;20380;-75
2022/01/14 03:02:46;;;;;;;116.63;36.47;;;5.90;99.90;;;;;;5026999;28;20052;-74
2022/01/14 03:05:12;;;;;;;106.18;33.42;;;5.90;99.90;;;;;;5021407;28;20048;-74
2022/01/14 03:07:39;;;;;;;111.38;36.13;;;5.90;99.90;;;;;;5037447;28;20530;-75
2022/01/14 03:10:06;;;;;;;107.97;35.00;;;5.90;99.90;;;;;;5055434;28;20059;-75
2022/01/14 03:12:33;;;;;;;106.78;34.55;;;5.90;99.90;;;;;;5054746;28;20045;-74
2022/01/14 03:15:00;;;;;;;116.70;35.35;;;5.90;99.90;;;;;;5038704;28;20128;-74
2022/01/14 03:17:27;;;;;;;125.80;35.38;;;5.90;99.90;;;;;;5054895;28;20119;-74
2022/01/14 03:19:53;;;;;;;110.20;35.33;;;5.90;99.90;;;;;;5038026;28;20051;-75
2022/01/14 03:27:10;;;;;;;119.20;35.88;;;5.90;99.90;;;;;;5056282;28;20474;-73
2022/01/14 03:29:37;;;;;;;123.38;36.72;;;5.80;99.90;;;;;;5058763;28;20086;-75
2022/01/14 03:32:03;;;;;;;124.70;38.05;;;5.80;99.90;;;;;;5058490;28;20097;-74
2022/01/14 03:34:30;;;;;;;125.55;37.28;;;5.90;99.90;;;;;;5058678;28;20107;-75
2022/01/14 03:36:56;;;;;;;124.68;37.53;;;5.80;99.90;;;;;;5053762;28;20055;-73
2022/01/14 03:39:23;;;;;;;130.70;36.08;;;5.80;99.90;;;;;;5038554;28;20040;-74
2022/01/14 03:41:49;;;;;;;133.43;37.30;;;5.80;99.90;;;;;;5049776;28;20029;-74
2022/01/14 03:44:16;;;;;;;143.90;37.22;;;5.80;99.90;;;;;;5055690;28;20052;-74
2022/01/14 03:46:42;;;;;;;134.93;35.67;;;5.80;99.90;;;;;;5041353;28;20044;-75
2022/01/14 03:49:07;;;;;;;131.13;36.53;;;5.80;99.90;;;;;;5058147;28;20077;-74
2022/01/14 03:51:33;;;;;;;135.23;38.15;;;5.90;99.90;;;;;;5057800;28;20059;-75
2022/01/14 03:53:59;;;;;;;123.50;35.42;;;5.80;99.90;;;;;;5057392;28;20090;-75
2022/01/14 03:56:25;;;;;;;119.43;36.20;;;5.80;99.90;;;;;;5057887;28;20403;-73
2022/01/14 03:58:52;;;;;;;128.27;35.88;;;5.80;99.90;;;;;;5041578;28;20082;-75
2022/01/14 04:01:19;;;;;;;132.95;36.05;;;5.80;99.90;;;;;;5054282;28;20040;-75
2022/01/14 04:03:47;;;;;;;115.80;35.13;;;5.80;99.90;;;;;;5053593;28;20099;-74
2022/01/14 04:06:13;;;;;;;120.57;36.30;;;5.80;99.90;;;;;;5044756;28;20076;-75
2022/01/14 04:08:40;;;;;;;121.80;34.90;;;5.80;99.90;;;;;;5041342;28;20041;-74
2022/01/14 04:11:05;;;;;;;116.72;36.83;;;5.80;99.90;;;;;;5041239;28;20075;-73
2022/01/14 04:13:45;;;;;;;114.93;36.00;;;5.80;99.90;;;;;;5041158;28;20102;-74
2022/01/14 04:16:11;;;;;;;109.18;34.05;;;5.80;99.90;;;;;;5057392;28;20466;-74
2022/01/14 04:18:37;;;;;;;111.43;33.60;;;5.80;99.90;;;;;;5040527;28;20127;-75
2022/01/14 04:21:03;;;;;;;106.50;34.63;;;5.80;99.90;;;;;;5040744;28;20131;-74
2022/01/14 04:23:29;;;;;;;122.93;36.40;;;5.80;99.90;;;;;;5057686;28;20036;-73
2022/01/14 04:25:55;;;;;;;114.28;34.63;;;5.90;99.90;;;;;;5057074;28;20062;-74
2022/01/14 04:28:24;;;;;;;117.88;35.85;;;5.80;99.90;;;;;;5054024;28;20120;-73
2022/01/14 04:30:54;;;;;;;114.20;35.70;;;5.90;99.90;;;;;;5037714;28;20044;-74
2022/01/14 04:33:26;;;;;;;102.63;35.00;;;5.90;99.90;;;;;;5056131;28;20072;-74
2022/01/14 04:35:54;;;;;;;103.10;34.58;;;5.80;99.90;;;;;;5056951;28;20039;-74
2022/01/14 04:38:20;;;;;;;116.45;35.08;;;5.80;99.90;;;;;;5056296;28;20072;-73
2022/01/14 04:40:46;;;;;;;109.15;34.97;;;5.90;99.90;;;;;;5057313;28;20094;-74
2022/01/14 04:43:16;;;;;;;113.43;35.72;;;5.90;99.90;;;;;;5057129;28;20134;-74
2022/01/14 04:45:54;;;;;;;115.53;36.20;;;5.80;99.90;;;;;;5056991;28;20497;-75
2022/01/14 04:48:21;;;;;;;101.63;34.70;;;5.80;99.90;;;;;;5040472;28;20036;-75
2022/01/14 04:50:47;;;;;;;112.28;35.05;;;5.80;99.90;;;;;;5056983;28;20135;-74
2022/01/14 04:53:13;;;;;;;105.35;35.58;;;5.80;99.90;;;;;;5054558;28;20132;-74
2022/01/14 04:55:39;;;;;;;108.65;37.83;;;5.80;99.90;;;;;;5056961;28;20048;-74
2022/01/14 04:58:05;;;;;;;107.63;35.83;;;5.80;99.90;;;;;;5056452;28;20372;-74
2022/01/14 05:00:32;;;;;;;106.63;35.65;;;5.80;99.90;;;;;;5057256;28;20044;-74
2022/01/14 05:02:57;;;;;;;106.97;34.97;;;5.80;99.90;;;;;;5039672;28;20045;-73
2022/01/14 05:05:27;;;;;;;99.68;34.22;;;5.80;99.90;;;;;;5056532;28;20121;-74
2022/01/14 05:07:52;;;;;;;91.32;33.28;;;5.80;99.90;;;;;;5039684;28;20047;-74
2022/01/14 05:10:35;;;;;;;102.18;34.50;;;5.80;99.90;;;;;;5055674;28;20033;-74
2022/01/14 05:13:01;;;;;;;98.90;33.05;;;5.80;99.90;;;;;;5053451;28;20049;-74
2022/01/14 05:15:28;;;;;;;99.47;31.70;;;5.80;99.90;;;;;;5021884;28;20051;-74
2022/01/14 05:17:54;;;;;;;97.60;31.20;;;5.80;99.90;;;;;;5039805;28;20029;-74
2022/01/14 05:20:20;;;;;;;88.82;31.88;;;5.70;99.90;;;;;;5056809;28;20055;-74
2022/01/14 05:22:46;;;;;;;104.28;32.92;;;5.70;99.90;;;;;;5052955;28;20048;-74
2022/01/14 05:25:14;;;;;;;95.13;32.28;;;5.80;99.90;;;;;;5020712;28;20086;-73
2022/01/14 05:27:41;;;;;;;97.15;31.10;;;5.80;99.90;;;;;;5056338;28;20044;-76
2022/01/14 05:30:09;;;;;;;98.95;32.53;;;5.80;99.90;;;;;;5053714;28;20060;-75
2022/01/14 05:32:35;;;;;;;96.53;32.35;;;5.80;99.90;;;;;;5040189;28;20124;-74
2022/01/14 05:35:01;;;;;;;105.28;31.83;;;5.80;99.90;;;;;;5039262;28;20385;-74
2022/01/14 05:37:27;;;;;;;103.07;32.97;;;5.70;99.90;;;;;;5039055;28;20085;-74
2022/01/14 05:39:53;;;;;;;110.75;32.85;;;5.70;99.90;;;;;;5038975;28;20048;-74
2022/01/14 05:42:18;;;;;;;107.90;34.00;;;5.80;99.90;;;;;;5056181;28;20055;-73
2022/01/14 05:44:44;;;;;;;96.55;32.75;;;5.70;99.90;;;;;;5052325;28;20048;-74
2022/01/14 05:47:10;;;;;;;112.35;35.05;;;5.70;99.90;;;;;;5043819;28;20033;-73
2022/01/14 05:49:36;;;;;;;117.47;35.85;;;5.70;99.90;;;;;;5039092;28;20445;-74
2022/01/14 05:52:02;;;;;;;105.70;33.50;;;5.70;99.90;;;;;;5055370;28;20524;-74
2022/01/14 05:54:28;;;;;;;102.32;34.33;;;5.70;99.90;;;;;;5054661;28;20033;-75
2022/01/14 05:56:54;;;;;;;102.22;34.28;;;5.60;99.90;;;;;;5055883;28;20123;-74
2022/01/14 05:59:19;;;;;;;99.35;33.08;;;5.60;99.90;;;;;;5055755;28;20151;-74
2022/01/14 06:01:45;;;;;;;107.05;34.25;;;5.60;99.90;;;;;;5055679;28;20080;-74
2022/01/14 06:04:11;;;;;;;116.47;33.60;;;5.60;99.90;;;;;;5039306;28;20041;-74
2022/01/14 06:06:37;;;;;;;99.68;34.10;;;5.60;99.90;;;;;;5038747;28;20048;-74
2022/01/14 06:09:04;;;;;;;92.10;31.63;;;5.60;99.90;;;;;;5038544;28;20088;-75
2022/01/14 06:11:30;;;;;;;99.22;34.22;;;5.60;99.90;;;;;;5055511;28;20040;-75
2022/01/14 06:13:56;;;;;;;91.20;32.75;;;5.60;99.90;;;;;;5052360;28;20049;-74
2022/01/14 06:16:22;;;;;;;89.13;31.38;;;5.60;99.90;;;;;;5036304;28;20392;-74
2022/01/14 06:18:48;;;;;;;97.40;32.83;;;5.60;99.90;;;;;;5035826;28;20460;-74
2022/01/14 06:21:15;;;;;;;86.88;31.17;;;5.60;99.90;;;;;;5021893;28;20079;-74
2022/01/14 06:23:41;;;;;;;83.38;30.75;;;5.60;99.90;;;;;;5038762;28;20040;-72
2022/01/14 06:26:07;;;;;;;93.68;31.00;;;5.60;99.90;;;;;;5055452;28;20048;-73
2022/01/14 06:28:33;;;;;;;84.95;31.02;;;5.60;99.90;;;;;;5055252;28;20066;-72
2022/01/14 06:30:59;;;;;;;77.78;30.42;;;5.60;99.90;;;;;;5053879;28;20036;-73
2022/01/14 06:33:25;;;;;;;79.88;30.88;;;5.60;99.90;;;;;;5051935;28;20037;-73
2022/01/14 06:35:50;;;;;;;78.05;30.05;;;5.60;99.90;;;;;;5052889;28;20092;-73
2022/01/14 06:38:20;;;;;;;84.97;29.88;;;5.60;99.90;;;;;;5055011;28;20043;-72
2022/01/14 06:40:46;;;;;;;75.32;30.73;;;5.60;99.90;;;;;;5055430;28;20377;-74
2022/01/14 06:43:14;;;;;;;73.60;29.55;;;5.60;99.90;;;;;;5055684;28;20043;-73
2022/01/14 06:45:40;;;;;;;67.93;29.48;;;5.60;99.90;;;;;;5055786;28;20051;-73
2022/01/14 06:48:06;;;;;;;71.63;28.98;;;5.60;99.90;;;;;;5054479;28;20040;-72
2022/01/14 06:50:31;;;;;;;70.60;28.88;;;5.60;99.90;;;;;;5055196;28;20043;-73
2022/01/14 06:52:57;;;;;;;66.07;28.25;;;5.60;99.90;;;;;;5038411;28;20098;-73
2022/01/14 06:55:23;;;;;;;68.03;27.67;;;5.70;99.90;;;;;;5055543;28;20131;-74
2022/01/14 06:57:48;;;;;;;75.13;29.33;;;5.60;99.90;;;;;;5038421;28;20036;-73
2022/01/14 07:00:16;;;;;;;74.07;30.02;;;5.60;99.90;;;;;;5055841;28;20068;-74
2022/01/14 07:02:42;;;;;;;74.10;28.23;;;5.60;99.90;;;;;;5059188;28;20490;-73
2022/01/14 07:05:09;;;;;;;64.63;27.52;;;5.60;99.90;;;;;;5058854;28;20040;-73
2022/01/14 07:07:37;;;;;;;66.53;27.83;;;5.60;99.90;;;;;;5058301;28;20044;-73
2022/01/14 07:10:04;;;;;;;63.45;28.17;;;5.70;99.90;;;;;;5042551;28;20478;-73
2022/01/14 07:12:36;;;;;;;59.00;27.27;;;5.60;99.90;;;;;;5059081;28;20479;-73
2022/01/14 07:15:05;;;;;;;70.38;28.65;;;5.60;99.90;;;;;;5042299;28;20513;-73
2022/01/14 07:17:31;;;;;;;67.22;28.30;;;5.60;99.90;;;;;;5058689;28;20072;-73
2022/01/14 07:20:00;;;;;;;65.22;27.02;;;5.70;99.90;;;;;;5042167;28;20079;-74
2022/01/14 07:22:26;;;;;;;65.82;28.60;;;5.70;99.90;;;;;;5058842;28;20128;-73
2022/01/14 07:24:51;;;;;;;69.72;26.98;;;5.60;99.90;;;;;;5042060;28;20127;-74
2022/01/14 07:27:17;;;;;;;65.93;27.45;;;5.70;99.90;;;;;;5058942;28;20098;-73
2022/01/14 07:29:43;;;;;;;65.30;28.38;;;5.70;99.90;;;;;;5058945;28;20355;-73
2022/01/14 07:32:09;;;;;;;60.50;27.75;;;5.70;99.90;;;;;;5041996;28;20109;-73
2022/01/14 07:34:35;;;;;;;58.45;27.58;;;5.70;99.90;;;;;;5058348;28;20044;-73
2022/01/14 07:37:01;;;;;;;62.15;28.13;;;5.70;99.90;;;;;;5055774;28;20107;-73
2022/01/14 07:39:27;;;;;;;60.10;26.88;;;5.70;99.90;;;;;;5029928;28;20097;-73
2022/01/14 07:41:53;;;;;;;60.85;27.25;;;5.70;99.90;;;;;;5042208;28;20044;-73
2022/01/14 07:44:20;;;;;;;63.72;27.58;;;5.70;99.90;;;;;;5058847;28;20131;-72
2022/01/14 07:46:47;;;;;;;56.75;26.80;;;5.70;99.90;;;;;;5058286;28;20463;-72
2022/01/14 07:49:13;;;;;;;56.00;26.38;;;5.70;99.90;;;;;;5041307;28;20075;-71
2022/01/14 07:51:39;;;;;;;60.75;27.55;;;5.70;99.90;;;;;;5058400;28;20180;-70
2022/01/14 07:54:05;;;;;;;57.97;27.08;;;5.70;99.90;;;;;;5041307;28;20235;-71
2022/01/14 07:56:36;;;;;;;60.38;27.52;;;5.70;99.90;;;;;;5054115;28;20052;-71
2022/01/14 07:59:04;;;;;;;54.65;26.85;;;5.70;99.90;;;;;;5021626;28;20380;-72
2022/01/14 08:01:32;;;;;;;52.33;26.05;;;5.80;99.90;;;;;;5038216;28;20041;-71
2022/01/14 08:03:59;;;;;;;60.08;26.90;;;5.70;99.90;;;;;;5038219;28;20048;-72
2022/01/14 08:06:25;;;;;;;59.85;26.27;;;5.80;99.90;;;;;;5038203;28;20117;-72
2022/01/14 08:08:50;;;;;;;53.47;26.00;;;5.80;99.90;;;;;;5057424;28;20049;-71
2022/01/14 08:11:16;;;;;;;56.15;26.90;;;5.80;99.90;;;;;;5054416;28;20053;-73
2022/01/14 08:13:42;;;;;;;53.83;26.42;;;5.80;99.90;;;;;;5040376;28;20051;-72
2022/01/14 08:16:07;;;;;;;49.28;26.50;;;5.80;99.90;;;;;;5057871;28;20045;-72
2022/01/14 08:18:33;;;;;;;50.88;26.27;;;5.80;99.90;;;;;;5040739;28;20494;-72
2022/01/14 08:20:59;;;;;;;50.13;25.33;;;5.80;99.90;;;;;;5057879;28;20040;-71
2022/01/14 08:23:25;;;;;;;53.78;27.13;;;5.80;99.90;;;;;;5057210;28;20105;-71
2022/01/14 08:25:53;;;;;;;46.70;25.13;;;5.80;99.90;;;;;;5057764;28;20394;-71
2022/01/14 08:28:20;;;;;;;51.90;26.42;;;5.90;99.90;;;;;;5057409;28;20129;-72
2022/01/14 08:30:45;;;;;;;59.15;25.77;;;5.80;99.90;;;;;;5040993;28;20044;-72
2022/01/14 08:33:12;;;;;;;48.42;24.42;;;5.80;99.90;;;;;;5056580;28;20060;-71
2022/01/14 08:35:39;;;;;;;50.53;25.00;;;5.90;99.90;;;;;;5041064;28;20036;-71
2022/01/14 08:38:06;;;;;;;53.15;25.08;;;5.90;99.90;;;;;;5056688;28;20035;-73
2022/01/14 08:40:32;;;;;;;55.17;23.73;;;5.90;99.90;;;;;;5057062;28;20099;-72
2022/01/14 08:42:58;;;;;;;44.95;23.35;;;5.90;99.90;;;;;;5053146;28;20127;-72
2022/01/14 08:45:25;;;;;;;54.72;24.02;;;5.90;99.90;;;;;;5048766;28;20119;-72
2022/01/14 08:47:52;;;;;;;46.85;24.77;;;6.00;99.90;;;;;;5058072;28;20368;-71
2022/01/14 08:50:29;;;;;;;45.28;24.13;;;6.00;99.90;;;;;;5057903;28;20127;-72
2022/01/14 08:52:56;;;;;;;46.20;24.55;;;6.00;99.90;;;;;;5052613;28;20380;-72
2022/01/14 08:55:22;;;;;;;57.38;28.52;;;6.00;99.90;;;;;;5052046;28;20062;-71
2022/01/14 08:57:48;;;;;;;53.10;27.45;;;6.00;99.90;;;;;;5040430;28;20087;-72
2022/01/14 09:00:15;;;;;;;47.53;23.20;;;6.00;99.90;;;;;;5056806;28;20500;-73
2022/01/14 09:02:41;;;;;;;51.92;26.48;;;6.00;99.90;;;;;;5040276;28;20055;-72
2022/01/14 09:05:08;;;;;;;51.97;23.10;;;6.00;99.90;;;;;;5057497;28;20036;-72
2022/01/14 09:07:34;;;;;;;49.63;22.85;;;6.10;99.90;;;;;;5056426;28;20450;-71
2022/01/14 09:10:00;;;;;;;48.50;23.50;;;6.10;99.90;;;;;;5039827;28;20044;-71
2022/01/14 09:12:26;;;;;;;47.35;21.75;;;6.10;99.90;;;;;;5040194;28;20055;-72
2022/01/14 09:14:51;;;;;;;43.20;21.83;;;6.20;99.90;;;;;;5039904;28;20075;-71
2022/01/14 09:17:17;;;;;;;46.33;22.17;;;6.10;99.90;;;;;;5057280;28;20040;-72
2022/01/14 09:19:44;;;;;;;45.15;22.00;;;6.20;99.90;;;;;;5056748;28;20060;-71
2022/01/14 09:22:15;;;;;;;48.63;28.17;;;6.20;99.90;;;;;;5039983;28;20037;-71
2022/01/14 09:24:41;;;;;;;47.35;22.25;;;6.20;99.90;;;;;;5056082;28;20119;-72
2022/01/14 09:27:07;;;;;;;47.15;20.70;;;6.20;99.90;;;;;;5056502;28;20044;-71
2022/01/14 09:29:33;;;;;;;38.80;20.67;;;6.20;99.90;;;;;;5039576;28;20041;-72
2022/01/14 09:31:58;;;;;;;45.88;22.75;;;6.20;99.90;;;;;;5057220;28;20470;-73
2022/01/14 09:34:24;;;;;;;46.30;22.48;;;6.30;99.90;;;;;;5056467;28;20360;-71
2022/01/14 09:36:50;;;;;;;48.50;24.48;;;6.30;99.90;;;;;;5039778;28;20048;-73
2022/01/14 09:39:15;;;;;;;40.85;20.42;;;6.30;99.90;;;;;;5055744;28;20036;-72
2022/01/14 09:41:41;;;;;;;34.95;19.92;;;6.30;99.90;;;;;;5056289;28;20044;-71
2022/01/14 09:44:07;;;;;;;45.50;20.00;;;6.40;99.90;;;;;;5039401;28;20143;-72
2022/01/14 09:46:32;;;;;;;41.25;18.58;;;6.40;99.90;;;;;;5039972;28;20044;-70
2022/01/14 09:48:58;;;;;;;40.35;20.30;;;6.40;99.90;;;;;;5056015;28;20041;-72
2022/01/14 09:51:24;;;;;;;49.85;19.77;;;6.40;99.90;;;;;;5039640;28;20044;-71
2022/01/14 09:53:50;;;;;;;39.50;18.92;;;6.40;99.90;;;;;;5039584;28;20044;-72
2022/01/14 09:56:18;;;;;;;36.22;17.80;;;6.50;99.90;;;;;;5055951;28;20044;-71
2022/01/14 09:58:47;;;;;;;37.30;17.65;;;6.60;99.90;;;;;;5039032;28;20136;-71
2022/01/14 10:01:23;;;;;;;38.92;19.00;;;6.60;99.90;;;;;;5056720;28;20123;-71
2022/01/14 10:03:53;;;;;;;47.03;18.90;;;6.60;99.90;;;;;;5055398;28;20044;-71
2022/01/14 10:06:41;;;;;;;40.88;17.52;;;6.60;99.90;;;;;;5055819;28;20051;-73
2022/01/14 10:09:12;;;;;;;35.03;16.83;;;6.60;99.90;;;;;;5038543;28;20044;-72
2022/01/14 10:11:40;;;;;;;37.25;16.52;;;6.60;99.90;;;;;;5056143;28;20036;-73
2022/01/14 10:14:13;;;;;;;31.42;16.17;;;6.70;99.90;;;;;;5039296;28;20478;-72
2022/01/14 10:16:43;;;;;;;33.85;17.05;;;6.70;99.90;;;;;;5055782;28;20497;-73
2022/01/14 10:19:24;;;;;;;35.13;16.42;;;6.70;99.90;;;;;;5038634;28;20541;-71
2022/01/14 10:21:50;;;;;;;34.88;16.23;;;6.80;99.90;;;;;;5039182;28;20108;-71
2022/01/14 10:24:18;;;;;;;32.42;15.70;;;6.80;99.90;;;;;;5055493;28;20109;-71
2022/01/14 10:26:49;;;;;;;32.97;15.52;;;6.80;99.90;;;;;;5039062;28;20032;-72
2022/01/14 10:29:32;;;;;;;28.85;14.43;;;6.80;99.90;;;;;;5039090;28;20044;-71
2022/01/14 10:32:00;;;;;;;30.58;15.15;;;6.90;99.90;;;;;;5054877;28;20048;-73
2022/01/14 10:34:26;;;;;;;33.30;14.70;;;6.90;99.90;;;;;;5038001;28;20045;-71
2022/01/14 10:37:15;;;;;;;34.42;14.48;;;6.90;99.90;;;;;;5055250;28;20047;-72
2022/01/14 10:39:50;;;;;;;36.05;14.20;;;7.00;99.90;;;;;;5055291;28;20043;-72
2022/01/14 10:42:36;;;;;;;31.27;13.80;;;7.00;99.90;;;;;;5038668;28;20045;-72
2022/01/14 10:45:25;;;;;;;29.73;12.45;;;7.00;99.90;;;;;;5055538;28;20071;-72
2022/01/14 10:48:03;;;;;;;33.28;13.27;;;7.00;99.90;;;;;;5039186;28;20037;-73
2022/01/14 10:50:31;;;;;;;23.23;12.35;;;7.00;99.90;;;;;;5055349;28;20048;-72
2022/01/14 10:52:57;;;;;;;27.10;12.25;;;7.00;99.90;;;;;;5055482;28;20044;-73
2022/01/14 10:55:27;;;;;;;24.90;13.07;;;7.00;99.90;;;;;;5038841;28;20055;-72
2022/01/14 10:57:53;;;;;;;31.10;13.73;;;7.00;99.90;;;;;;5055760;28;20043;-71
2022/01/14 11:00:20;;;;;;;29.70;13.35;;;7.10;99.90;;;;;;5055155;28;20040;-71
2022/01/14 11:02:48;;;;;;;27.70;13.18;;;7.10;99.90;;;;;;5054803;28;20087;-72
2022/01/14 11:05:20;;;;;;;26.95;12.10;;;7.10;99.90;;;;;;5055151;28;20049;-72
2022/01/14 11:07:48;;;;;;;21.35;11.57;;;7.10;99.90;;;;;;5055853;28;20044;-71
2022/01/14 11:10:26;;;;;;;25.15;11.73;;;7.10;99.90;;;;;;5055455;28;20379;-72
2022/01/14 11:12:54;;;;;;;24.65;10.32;;;7.10;99.90;;;;;;5055056;28;20039;-72
2022/01/14 11:15:23;;;;;;;22.42;10.43;;;7.10;99.90;;;;;;5055210;28;20037;-72
2022/01/14 11:17:51;;;;;;;24.50;10.70;;;7.10;99.90;;;;;;5038364;28;20041;-70
2022/01/14 11:23:14;;;;;;;22.25;10.95;;;7.10;99.90;;;;;;5038225;28;20068;-71
2022/01/14 11:23:14;;;;;;;25.60;11.20;;;7.20;99.90;;;;;;5052746;28;20085;-71
2022/01/14 11:25:54;;;;;;;28.50;11.32;;;7.20;99.90;;;;;;5038626;28;20040;-71
2022/01/14 11:28:26;;;;;;;;;;;7.20;99.90;;;;;;5051342;28;20040;-71
2022/01/14 11:30:51;;;;;;;24.40;10.32;;;7.10;99.90;;;;;;5054997;28;19969;-72
2022/01/14 11:33:19;;;;;;;21.85;9.82;;;7.20;99.90;;;;;;5038590;28;20036;-71
2022/01/14 11:35:55;;;;;;;30.42;12.75;;;7.20;99.90;;;;;;5055357;28;20148;-72
2022/01/14 11:38:41;;;;;;;64.47;25.55;;;7.20;99.90;;;;;;5054520;28;20049;-72
2022/01/14 11:41:08;;;;;;;33.17;15.43;;;7.20;99.90;;;;;;5038648;28;20047;-73
2022/01/14 11:43:43;;;;;;;23.95;10.50;;;7.20;99.90;;;;;;5053203;28;20132;-72
2022/01/14 11:46:12;;;;;;;32.70;15.02;;;7.10;99.90;;;;;;5038287;28;20127;-73
2022/01/14 11:48:49;;;;;;;92.00;36.43;;;7.10;99.90;;;;;;5058458;28;20048;-72
2022/01/14 11:51:17;;;;;;;34.92;15.95;;;7.10;99.90;;;;;;5057927;28;20621;-73
2022/01/14 11:53:45;;;;;;;27.73;12.80;;;7.20;99.90;;;;;;5058357;28;20370;-71
2022/01/14 11:56:31;;;;;;;32.42;20.83;;;7.10;99.90;;;;;;5058795;28;20047;-73
2022/01/14 11:59:20;;;;;;;27.35;12.25;;;7.10;99.90;;;;;;5057288;28;20131;-71
2022/01/14 12:01:47;;;;;;;18.58;9.20;;;7.20;99.90;;;;;;5040398;28;20476;-72
2022/01/14 12:04:13;;;;;;;19.80;8.63;;;7.10;99.90;;;;;;5058259;28;20500;-71
2022/01/14 12:07:02;;;;;;;20.77;9.25;;;7.20;99.90;;;;;;5058555;28;20126;-73
2022/01/14 12:09:33;;;;;;;31.73;17.13;;;7.20;99.90;;;;;;5047625;28;20121;-72
2022/01/14 12:12:24;;;;;;;21.40;9.73;;;7.10;99.90;;;;;;5057692;28;20322;-72
2022/01/14 12:14:58;;;;;;;23.60;9.38;;;7.20;99.90;;;;;;5058295;28;20075;-72
2022/01/14 12:17:35;;;;;;;17.67;8.80;;;7.20;99.90;;;;;;5058041;28;20044;-73
2022/01/14 12:20:27;;;;;;;24.00;8.60;;;7.20;99.90;;;;;;5055441;28;20115;-72
2022/01/14 12:23:08;;;;;;;23.65;8.77;;;7.20;99.90;;;;;;5052747;28;20048;-73
2022/01/14 12:25:42;;;;;;;17.70;8.55;;;7.20;99.90;;;;;;5057736;28;20106;-71
2022/01/14 12:28:19;;;;;;;17.25;8.77;;;7.30;99.90;;;;;;5057860;28;20083;-71
2022/01/14 12:31:01;;;;;;;23.23;8.38;;;7.20;99.90;;;;;;5057637;28;20036;-72
2022/01/14 12:33:50;;;;;;;19.55;7.88;;;7.30;99.90;;;;;;5057999;28;20064;-72
2022/01/14 12:36:22;;;;;;;19.75;7.63;;;7.30;99.90;;;;;;5057243;28;20087;-72
2022/01/14 12:38:49;;;;;;;18.38;7.63;;;7.30;99.90;;;;;;5040512;28;20036;-71
2022/01/14 12:41:20;;;;;;;19.33;7.25;;;7.30;99.90;;;;;;5057043;28;20127;-72
2022/01/14 12:43:57;;;;;;;21.60;6.97;;;7.30;99.90;;;;;;5057534;28;20072;-72
2022/01/14 12:49:08;;;;;;;21.45;8.07;;;7.30;99.90;;;;;;5057248;28;20059;-71
2022/01/14 12:51:33;;;;;;;19.35;7.70;;;7.30;99.90;;;;;;5057144;28;20474;-72
2022/01/14 12:54:02;;;;;;;17.35;6.95;;;7.30;99.90;;;;;;5056912;28;20051;-72
2022/01/14 12:56:30;;;;;;;18.83;7.23;;;7.30;99.90;;;;;;5057455;28;20091;-73
2022/01/14 12:59:05;;;;;;;19.75;7.35;;;7.30;99.90;;;;;;5056778;28;20363;-72
2022/01/14 13:01:49;;;;;;;21.67;7.30;;;7.30;99.90;;;;;;5057193;28;20043;-72
2022/01/14 13:04:16;;;;;;;17.85;7.15;;;7.30;99.90;;;;;;5056754;28;20497;-72
2022/01/14 13:06:44;;;;;;;16.27;7.35;;;7.30;99.90;;;;;;5041222;28;20132;-72